Flight Track Log - Related Links

Times and Time Zones

All times are in EDT time to prevent confusion due to time zone crossing. See the ASQ5685 flight status page for this flight to view local times or setup timezone preferences in your user account.

Time Position Orientation Groundspeed Altitude Reporting Facility
EDT Latitude Longitude Course Direction KTS MPH feet Rate Location/Type
Wed 09:24:44 AM 33.6306 -84.4731 53° Northeast 392 451 2,300  Level Atlanta Center
Wed 09:25:15 AM 33.6167 -84.5167 249° West 232 267 3,100 2,374 Climbing Atlanta TRACON
Wed 09:26:15 AM 33.5833 -84.5833 239° Southwest 267 307 5,900 2,632 Climbing Atlanta TRACON
Wed 09:27:00 AM 33.7645 -83.9537 54° Northeast  Level FlightAware
Wed 09:27:09 AM 33.5000 -84.5833 180° South 290 334 8,100  Level Atlanta TRACON
Wed 09:27:44 AM 33.4633 -84.5567 149° Southeast 304 350 9,400 1,832 Climbing Atlanta Center
Wed 09:28:00 AM 33.8248 -83.8533 54° Northeast  Level FlightAware
Wed 09:28:44 AM 33.4575 -84.4572 94° East 273 314 11,000  Level Atlanta Center
Wed 09:29:00 AM 33.8876 -83.7554 48° Northeast  Level FlightAware
Wed 09:29:44 AM 33.4536 -84.3375 92° East 316 364 12,100  Level Atlanta Center
Wed 09:30:00 AM 33.9524 -83.6593 53° Northeast  Level FlightAware
Wed 09:30:44 AM 33.5103 -84.2431 54° Northeast 321 369 13,800  Level Atlanta Center
Wed 09:31:44 AM 33.5981 -84.1858 28° Northeast 313 360 15,400 1,400 Climbing Atlanta Center
Wed 09:32:44 AM 33.6897 -84.1236 29° Northeast 346 398 16,600 1,100 Climbing Atlanta Center
Wed 09:33:44 AM 33.7650 -84.0314 46° Northeast 357 411 17,600 1,150 Climbing Atlanta Center
Wed 09:34:44 AM 33.8233 -83.9189 58° Northeast 402 463 18,900 1,150 Climbing Atlanta Center
Wed 09:35:44 AM 33.8756 -83.8161 59° Northeast 402 463 19,900 1,050 Climbing Atlanta Center
Wed 09:36:44 AM 33.9358 -83.7033 57° Northeast 397 457 21,000 1,050 Climbing Atlanta Center
Wed 09:37:44 AM 34.0064 -83.5953 52° Northeast 409 471 22,000 850 Climbing Atlanta Center
Wed 09:38:44 AM 34.0769 -83.4819 53° Northeast 409 471 22,700 600 Climbing Atlanta Center
Wed 09:39:44 AM 34.1494 -83.3686 52° Northeast 419 482 23,200 500 Climbing Atlanta Center
Wed 09:40:44 AM 34.2217 -83.2500 54° Northeast 425 489 23,700 500 Climbing Atlanta Center
Wed 09:41:44 AM 34.2961 -83.1311 53° Northeast 436 502 24,200 500 Climbing Atlanta Center
Wed 09:42:44 AM 34.3783 -82.9967 53° Northeast 446 513 24,700 550 Climbing Atlanta Center
Wed 09:43:44 AM 34.4567 -82.8700 53° Northeast 457 526 25,300 550 Climbing Atlanta Center
Wed 09:44:44 AM 34.5306 -82.7453 54° Northeast 457 526 25,800 500 Climbing Atlanta Center
Wed 09:45:44 AM 34.6106 -82.6203 52° Northeast 466 536 26,300 450 Climbing Atlanta Center
Wed 09:46:44 AM 34.6822 -82.5081 52° Northeast 466 536 26,700 450 Climbing Atlanta Center
Wed 09:47:44 AM 34.7578 -82.3828 54° Northeast 466 536 27,200 500 Climbing Atlanta Center
Wed 09:48:44 AM 34.8353 -82.2572 53° Northeast 461 531 27,700 550 Climbing Atlanta Center
Wed 09:49:44 AM 34.9228 -82.1161 53° Northeast 461 531 28,300 550 Climbing Atlanta Center
Wed 09:50:44 AM 34.9981 -81.9900 54° Northeast 464 534 28,800 350 Climbing Atlanta Center
Wed 09:51:44 AM 35.0708 -81.8564 56° Northeast 464 534 29,000 100 Climbing Atlanta Center
Wed 09:52:44 AM 35.1375 -81.7353 56° Northeast 478 550 29,000  Level Atlanta Center
Wed 09:53:44 AM 35.2119 -81.5933 57° Northeast 485 558 29,000  Level Atlanta Center
Wed 09:54:44 AM 35.2842 -81.4536 58° Northeast 490 564 29,000  Level Atlanta Center
Wed 09:55:44 AM 35.3642 -81.2958 58° Northeast 490 564 29,000  Level Atlanta Center
Wed 09:56:44 AM 35.4322 -81.1661 57° Northeast 490 564 29,000  Level Atlanta Center
Wed 09:57:44 AM 35.5081 -81.0181 58° Northeast 502 578 29,000  Level Atlanta Center
Wed 09:58:44 AM 35.5858 -80.8775 56° Northeast 502 578 29,000  Level Atlanta Center
Wed 09:59:44 AM 35.6592 -80.7314 58° Northeast 502 578 29,000  Level Atlanta Center
Wed 10:00:44 AM 35.7344 -80.5850 58° Northeast 502 578 29,000  Level Atlanta Center
Wed 10:02:52 AM 35.9003 -80.2589 58° Northeast 509 586 29,000  Level Washington Center
Wed 10:03:53 AM 35.9725 -80.1142 58° Northeast 503 579 29,000  Level Washington Center
Wed 10:04:54 AM 36.0486 -79.9747 56° Northeast 498 573 29,000  Level Washington Center
Wed 10:05:52 AM 36.1289 -79.8328 55° Northeast 498 573 29,000  Level Washington Center
Wed 10:06:53 AM 36.2089 -79.6903 55° Northeast 505 581 29,000  Level Washington Center
Wed 10:07:53 AM 36.2822 -79.5628 54° Northeast 505 581 29,000  Level Washington Center
Wed 10:08:54 AM 36.3706 -79.4072 55° Northeast 505 581 29,000 -298 Level Washington Center
Wed 10:09:54 AM 36.4417 -79.2739 56° Northeast 505 581 28,400 -966 Descending Washington Center
Wed 10:10:52 AM 36.5319 -79.1178 54° Northeast 505 581 27,100 -1,271 Descending Washington Center
Wed 10:11:52 AM 36.6156 -78.9689 55° Northeast 505 581 25,900 -1,033 Descending Washington Center
Wed 10:12:54 AM 36.6925 -78.8247 56° Northeast 505 581 25,000 -454 Descending Washington Center
Wed 10:13:51 AM 36.7714 -78.6800 56° Northeast 500 575 25,000  Level Washington Center
Wed 10:14:52 AM 36.8392 -78.5531 56° Northeast 500 575 25,000  Level Washington Center
Wed 10:15:53 AM 36.9253 -78.4472 44° Northeast 486 559 25,000  Level Washington Center
Wed 10:16:53 AM 37.0508 -78.3453 33° Northeast 480 552 25,000  Level Washington Center
Wed 10:17:53 AM 37.1781 -78.2481 31° Northeast 486 559 25,000 -99 Level Washington Center
Wed 10:18:54 AM 37.2906 -78.1581 32° Northeast 486 559 24,800 -403 Descending Washington Center
Wed 10:19:52 AM 37.4094 -78.0653 32° Northeast 486 559 24,200 -1,210 Descending Washington Center
Wed 10:20:53 AM 37.5281 -77.9722 32° Northeast 493 567 22,400 -2,132 Descending Washington Center
Wed 10:21:53 AM 37.6361 -77.8839 33° Northeast 488 562 19,900 -2,471 Descending Washington Center
Wed 10:22:52 AM 37.7378 -77.8028 32° Northeast 458 527 17,500 -2,471 Descending Washington Center
Wed 10:23:52 AM 37.8394 -77.7244 31° Northeast 437 503 15,000 -2,459 Descending Washington Center
Wed 10:24:54 AM 37.9306 -77.6453 34° Northeast 412 474 12,500 -2,410 Descending Washington Center
Wed 10:25:54 AM 38.0214 -77.5739 32° Northeast 399 459 10,100 -1,271 Descending Washington Center
Wed 10:26:52 AM 38.0953 -77.5206 30° Northeast 367 422 10,000 -50 Descending Washington Center
Wed 10:27:53 AM 38.1608 -77.4642 34° Northeast 324 373 10,000  Level Washington Center
Wed 10:28:54 AM 38.2344 -77.4156 27° Northeast 297 342 10,000 -397 Level Washington Center
Wed 10:29:54 AM 38.3039 -77.3750 25° Northeast 286 329 9,200 -908 Descending Washington Center
Wed 10:30:53 AM 38.3700 -77.4083 338° Northwest 251 289 8,200 -1,008 Descending Washington Center
Wed 10:31:53 AM 38.4403 -77.4472 337° Northwest 251 289 7,200 -992 Descending Washington Center
Wed 10:32:54 AM 38.5114 -77.4464 North 251 289 6,200 -1,008 Descending Washington Center
Wed 10:33:52 AM 38.5864 -77.4456 360° North 257 296 5,200 -1,008 Descending Washington Center
Wed 10:34:53 AM 38.6594 -77.4447 North 257 296 4,200 -1,087 Descending Washington Center
Wed 10:35:59 AM 38.7500 -77.4333 North 257 296 2,900 -1,048 Descending Potomac TRACON
Wed 10:36:59 AM 38.8167 -77.4333 360° North 230 265 2,000 -750 Descending Potomac TRACON
Wed 10:37:59 AM 38.8667 -77.4333 360° North 174 200 1,400 -600 Descending Potomac TRACON

Login

Don't have an account? Register now (free) for customized features, flight alerts, and more!